Time;durP1;ratioP1;P1;durP2;ratioP2;P2;SDS_P1;SDS_P2;PMS_P1;PMS_P2;Temp;Humidity;BMP_temperature;BMP_pressure;BME280_temperature;BME280_humidity;BME280_pressure;Samples;Min_cycle;Max_cycle;Signal;HPM_P1;HPM_P2
2023/10/13 03:51:54;;;;;;;;;;;;;;;;;;5248670;23;20297;-74
2023/10/13 03:54:22;;;;;;;;;;;;;;;;;;5014298;28;19926;-72
2023/10/13 03:56:52;;;;;;;;;;;;;;;;;;5014499;28;19977;-72
2023/10/13 03:59:19;;;;;;;;;;;;;;;;;;5014507;28;19930;-72
2023/10/13 04:01:46;;;;;;;;;;;;;;;;;;5014672;28;19948;-72
2023/10/13 04:04:14;;;;;;;;;;;;;;;;;;5015595;28;19926;-74
2023/10/13 04:07:12;;;;;;;;;;;;;;;;;;5014451;28;19926;-73
2023/10/13 04:10:10;;;;;;;;;;;;;;;;;;5014308;28;20367;-72
2023/10/13 04:15:36;;;;;;;;;;;;;;;;;;5014073;28;19920;-73
2023/10/13 04:18:13;;;;;;;;;;;;;;;;;;5014048;28;20470;-72
2023/10/13 04:20:46;;;;;;;;;;;;;;;;;;5014231;28;19925;-72
2023/10/13 04:23:18;;;;;;;;;;;;;;;;;;5014393;28;19932;-72
2023/10/13 04:26:21;;;;;;;;;;;;;;;;;;5014148;28;19925;-71
2023/10/13 04:28:52;;;;;;;;;;;;;;;;;;5014272;28;19957;-71
2023/10/13 04:31:46;;;;;;;;;;;;;;;;;;5014503;28;19922;-72
2023/10/13 04:34:27;;;;;;;;;;;;;;;;;;5014006;28;20339;-72
2023/10/13 04:37:11;;;;;;;;;;;;;;;;;;5013777;28;20291;-72
2023/10/13 04:39:38;;;;;;;;;;;;;;;;;;5014032;28;19926;-71
2023/10/13 04:42:13;;;;;;;;;;;;;;;;;;5013734;28;19928;-71
2023/10/13 04:44:48;;;;;;;;;;;;;;;;;;5013955;28;19925;-71
2023/10/13 04:47:22;;;;;;;;;;;;;;;;;;5013927;28;20405;-71
2023/10/13 04:49:52;;;;;;;;;;;;;;;;;;5014017;28;19930;-71
2023/10/13 04:55:24;;;;;;;;;;;;;;;;;;4980552;28;19932;-71
2023/10/13 04:58:00;;;;;;;;;;;;;;;;;;5017790;28;20342;-71
2023/10/13 05:44:32;;;;;;;;;;;;;;;;;;5018143;28;20039;-70
2023/10/13 05:44:53;;;;;;;;;;;;;;;;;;5016938;28;20325;-68
2023/10/13 05:50:28;;;;;;;;;;;;;;;;;;5016692;28;19921;-68
2023/10/13 06:28:42;;;;;;;;;;;;;;;;;;5016116;28;19937;-69
2023/10/13 06:31:13;;;;;;;;;;;;;;;;;;5016049;28;19930;-69
2023/10/13 06:33:45;;;;;;;;;;;;;;;;;;5015991;28;19929;-69
2023/10/13 06:36:12;;;;;;;;;;;;;;;;;;5015961;28;19925;-69
2023/10/13 06:38:39;;;;;;;;;;;;;;;;;;5015608;28;20390;-69
2023/10/13 06:41:06;;;;;;;;;;;;;;;;;;5016080;28;19933;-69
2023/10/13 06:43:39;;;;;;;;;;;;;;;;;;5015937;28;20015;-69
2023/10/13 06:46:07;;;;;;;;;;;;;;;;;;5015668;28;19929;-67
2023/10/13 06:48:34;;;;;;;;;;;;;;;;;;5015622;28;19929;-67
2023/10/13 06:51:06;;;;;;;;;;;;;;;;;;5015815;28;20016;-67
2023/10/13 06:53:36;;;;;;;;;;;;;;;;;;5015526;28;20371;-67
2023/10/13 06:56:03;;;;;;;;;;;;;;;;;;5016102;28;19926;-68
2023/10/13 06:58:32;;;;;;;;;;;;;;;;;;5015670;28;19932;-67
2023/10/13 07:01:01;;;;;;;;;;;;;;;;;;5015739;28;19930;-68
2023/10/13 07:03:28;;;;;;;;;;;;;;;;;;5015621;28;19926;-70
2023/10/13 07:05:58;;;;;;;;;;;;;;;;;;5015464;28;19925;-69
2023/10/13 07:08:25;;;;;;;;;;;;;;;;;;5015606;28;19929;-69
2023/10/13 07:11:02;;;;;;;;;;;;;;;;;;5015462;28;19926;-69
2023/10/13 07:13:29;;;;;;;;;;;;;;;;;;5015053;28;19926;-68
2023/10/13 07:16:00;;;;;;;;;;;;;;;;;;5015412;28;19925;-69
2023/10/13 07:18:32;;;;;;;;;;;;;;;;;;5015445;28;19926;-69
2023/10/13 07:21:00;;;;;;;;;;;;;;;;;;5015381;28;20006;-69
2023/10/13 07:23:29;;;;;;;;;;;;;;;;;;5015062;28;19933;-69
2023/10/13 07:26:02;;;;;;;;;;;;;;;;;;5015068;28;19933;-69
2023/10/13 07:28:30;;;;;;;;;;;;;;;;;;5015236;28;19940;-69
2023/10/13 07:31:11;;;;;;;;;;;;;;;;;;5014905;28;19931;-69
2023/10/13 07:33:40;;;;;;;;;;;;;;;;;;5014887;28;19925;-70
2023/10/13 07:36:15;;;;;;;;;;;;;;;;;;5014899;28;19948;-70
2023/10/13 07:38:43;;;;;;;;;;;;;;;;;;5015153;28;19926;-70
2023/10/13 07:41:10;;;;;;;;;;;;;;;;;;5015088;28;19929;-70
2023/10/13 07:43:38;;;;;;;;;;;;;;;;;;5014725;28;19933;-70
2023/10/13 07:46:09;;;;;;;;;;;;;;;;;;5014691;28;19925;-70
2023/10/13 07:48:36;;;;;;;;;;;;;;;;;;5014958;28;19973;-70
2023/10/13 07:51:05;;;;;;;;;;;;;;;;;;5013537;28;22508;-70
2023/10/13 07:53:35;;;;;;;;;;;;;;;;;;5014433;28;19926;-70
2023/10/13 07:56:04;;;;;;;;;;;;;;;;;;5014680;28;19976;-70
2023/10/13 07:58:32;;;;;;;;;;;;;;;;;;5014576;28;19926;-69
2023/10/13 08:01:07;;;;;;;;;;;;;;;;;;5014512;28;19967;-70
2023/10/13 08:03:44;;;;;;;;;;;;;;;;;;5014394;28;19932;-70
2023/10/13 08:06:21;;;;;;;;;;;;;;;;;;5014497;28;19929;-70
2023/10/13 08:08:53;;;;;;;;;;;;;;;;;;5014566;28;19932;-70
2023/10/13 08:11:30;;;;;;;;;;;;;;;;;;5013998;28;20394;-70
2023/10/13 08:13:58;;;;;;;;;;;;;;;;;;5014587;28;19964;-71
2023/10/13 08:16:30;;;;;;;;;;;;;;;;;;5014337;28;19926;-69
2023/10/13 08:19:01;;;;;;;;;;;;;;;;;;5014327;28;19925;-68
2023/10/13 08:21:31;;;;;;;;;;;;;;;;;;5014131;28;19987;-68
2023/10/13 08:23:59;;;;;;;;;;;;;;;;;;5014118;28;19948;-68
2023/10/13 08:32:04;;;;;;;;;;;;;;;;;;5013544;28;20025;-68
2023/10/13 08:34:38;;;;;;;;;;;;;;;;;;5014062;28;20338;-68
2023/10/13 08:37:19;;;;;;;;;;;;;;;;;;5014275;28;19925;-68
2023/10/13 08:42:52;;;;;;;;;;;;;;;;;;4977090;28;19996;-68
2023/10/13 08:45:53;;;;;;;;;;;;;;;;;;5015091;28;20028;-68
2023/10/13 08:48:12;;;;;;;;;;;;;;;;;;5014314;28;19926;-68
2023/10/13 08:50:48;;;;;;;;;;;;;;;;;;5014646;28;20043;-68
2023/10/13 08:53:26;;;;;;;;;;;;;;;;;;5014256;28;19976;-68
2023/10/13 08:56:02;;;;;;;;;;;;;;;;;;5014100;28;19933;-68
2023/10/13 08:58:59;;;;;;;;;;;;;;;;;;5013953;28;19925;-68
2023/10/13 09:01:34;;;;;;;;;;;;;;;;;;5013457;28;19953;-68
2023/10/13 09:04:20;;;;;;;;;;;;;;;;;;5013507;28;20379;-68
2023/10/13 09:06:52;;;;;;;;;;;;;;;;;;5013734;28;20398;-69
2023/10/13 09:09:26;;;;;;;;;;;;;;;;;;5014032;28;19925;-68
2023/10/13 09:12:07;;;;;;;;;;;;;;;;;;5013450;28;20411;-67
2023/10/13 09:14:33;;;;;;;;;;;;;;;;;;5013451;28;20383;-68
2023/10/13 09:17:07;;;;;;;;;;;;;;;;;;5013865;28;19925;-68
2023/10/13 09:19:44;;;;;;;;;;;;;;;;;;5013653;28;19926;-68
2023/10/13 09:22:24;;;;;;;;;;;;;;;;;;5013522;28;19952;-68
2023/10/13 09:24:51;;;;;;;;;;;;;;;;;;5013745;28;19931;-68
2023/10/13 09:27:18;;;;;;;;;;;;;;;;;;5013650;28;19921;-68
2023/10/13 09:29:52;;;;;;;;;;;;;;;;;;5013694;28;19929;-67
2023/10/13 09:32:21;;;;;;;;;;;;;;;;;;5013156;28;19928;-67
2023/10/13 09:34:48;;;;;;;;;;;;;;;;;;5013267;28;19932;-67
2023/10/13 09:37:20;;;;;;;;;;;;;;;;;;5014569;28;19928;-67
2023/10/13 09:39:48;;;;;;;;;;;;;;;;;;5016687;28;20370;-67
2023/10/13 09:42:18;;;;;;;;;;;;;;;;;;5016829;28;19976;-67
2023/10/13 09:44:49;;;;;;;;;;;;;;;;;;5016811;28;19929;-67
2023/10/13 09:47:21;;;;;;;;;;;;;;;;;;5016892;28;20015;-67
2023/10/13 09:49:49;;;;;;;;;;;;;;;;;;5017215;28;19925;-67
2023/10/13 09:52:19;;;;;;;;;;;;;;;;;;5017025;28;19968;-67
2023/10/13 09:54:48;;;;;;;;;;;;;;;;;;5017774;28;19925;-67
2023/10/13 09:57:16;;;;;;;;;;;;;;;;;;5016924;28;19964;-67
2023/10/13 09:59:47;;;;;;;;;;;;;;;;;;5016504;28;19926;-67
2023/10/13 10:02:19;;;;;;;;;;;;;;;;;;5016658;28;19956;-67
2023/10/13 10:04:51;;;;;;;;;;;;;;;;;;5016813;28;20028;-70
2023/10/13 10:07:19;;;;;;;;;;;;;;;;;;5016912;28;19979;-70
2023/10/13 10:09:46;;;;;;;;;;;;;;;;;;5016452;28;19921;-70
2023/10/13 10:12:13;;;;;;;;;;;;;;;;;;5016301;28;19926;-71
2023/10/13 10:14:41;;;;;;;;;;;;;;;;;;5016381;28;20357;-71
2023/10/13 10:17:07;;;;;;;;;;;;;;;;;;5015997;28;20023;-71
2023/10/13 10:19:36;;;;;;;;;;;;;;;;;;5016338;28;20294;-71
2023/10/13 10:22:10;;;;;;;;;;;;;;;;;;5016331;28;19925;-71
2023/10/13 10:24:38;;;;;;;;;;;;;;;;;;5015975;28;19926;-72
2023/10/13 10:27:05;;;;;;;;;;;;;;;;;;5015945;28;19980;-71
2023/10/13 10:29:34;;;;;;;;;;;;;;;;;;5016250;28;19933;-72
2023/10/13 10:32:06;;;;;;;;;;;;;;;;;;5016096;28;19929;-70
2023/10/13 10:34:35;;;;;;;;;;;;;;;;;;5016148;28;19926;-71
2023/10/13 10:37:08;;;;;;;;;;;;;;;;;;5016032;28;19925;-70
2023/10/13 10:39:44;;;;;;;;;;;;;;;;;;5015972;28;19925;-70
2023/10/13 10:42:15;;;;;;;;;;;;;;;;;;5015604;28;19932;-71
2023/10/13 10:44:43;;;;;;;;;;;;;;;;;;5016019;28;19931;-71
2023/10/13 10:47:09;;;;;;;;;;;;;;;;;;5016496;28;19965;-71
2023/10/13 10:49:37;;;;;;;;;;;;;;;;;;5015123;28;19933;-71
2023/10/13 10:52:04;;;;;;;;;;;;;;;;;;5015375;28;19932;-70
2023/10/13 10:54:32;;;;;;;;;;;;;;;;;;5016135;28;19980;-71
2023/10/13 10:57:10;;;;;;;;;;;;;;;;;;5015649;28;19979;-71
2023/10/13 10:59:38;;;;;;;;;;;;;;;;;;5015402;28;19933;-71
2023/10/13 11:02:06;;;;;;;;;;;;;;;;;;5015233;28;20287;-71
2023/10/13 11:04:35;;;;;;;;;;;;;;;;;;5015085;28;20374;-71
2023/10/13 11:07:02;;;;;;;;;;;;;;;;;;5015508;28;19926;-71
2023/10/13 11:09:36;;;;;;;;;;;;;;;;;;5015964;28;19975;-71
2023/10/13 11:12:03;;;;;;;;;;;;;;;;;;5015669;28;20386;-71
2023/10/13 11:14:30;;;;;;;;;;;;;;;;;;5015718;28;19968;-71
2023/10/13 11:17:00;;;;;;;;;;;;;;;;;;5015450;28;19926;-72
2023/10/13 11:19:27;;;;;;;;;;;;;;;;;;5015120;28;20341;-71
2023/10/13 11:21:55;;;;;;;;;;;;;;;;;;5015459;28;20029;-69
2023/10/13 11:24:22;;;;;;;;;;;;;;;;;;5014968;28;20359;-71
2023/10/13 11:26:50;;;;;;;;;;;;;;;;;;5014927;28;20020;-71
2023/10/13 11:29:18;;;;;;;;;;;;;;;;;;5015137;28;19925;-70
2023/10/13 11:31:45;;;;;;;;;;;;;;;;;;5015462;28;19999;-72
2023/10/13 11:34:16;;;;;;;;;;;;;;;;;;5015251;28;19932;-72
2023/10/13 11:36:42;;;;;;;;;;;;;;;;;;5015068;28;19925;-72
2023/10/13 11:39:16;;;;;;;;;;;;;;;;;;5015298;28;19933;-71
2023/10/13 11:41:50;;;;;;;;;;;;;;;;;;5014840;28;19968;-72
2023/10/13 11:44:24;;;;;;;;;;;;;;;;;;5015126;28;19979;-71
2023/10/13 11:47:07;;;;;;;;;;;;;;;;;;5014839;28;20024;-71
2023/10/13 11:49:37;;;;;;;;;;;;;;;;;;5014852;28;19928;-71
2023/10/13 11:54:50;;;;;;;;;;;;;;;;;;5010945;28;19983;-71
2023/10/13 11:57:21;;;;;;;;;;;;;;;;;;5014584;28;19932;-71
2023/10/13 11:59:55;;;;;;;;;;;;;;;;;;5014240;28;19926;-71
2023/10/13 12:05:12;;;;;;;;;;;;;;;;;;5014136;28;19988;-70
2023/10/13 12:07:51;;;;;;;;;;;;;;;;;;5014422;28;19925;-71
2023/10/13 12:10:34;;;;;;;;;;;;;;;;;;5014399;28;20012;-71
2023/10/13 12:13:05;;;;;;;;;;;;;;;;;;5014345;28;20386;-71
2023/10/13 12:15:36;;;;;;;;;;;;;;;;;;5014508;28;19932;-71
2023/10/13 12:18:03;;;;;;;;;;;;;;;;;;5014308;28;19932;-70
2023/10/13 12:20:35;;;;;;;;;;;;;;;;;;5013847;28;20383;-69
2023/10/13 12:23:15;;;;;;;;;;;;;;;;;;5013921;28;20394;-70
2023/10/13 12:25:54;;;;;;;;;;;;;;;;;;5013845;28;19933;-70
2023/10/13 12:28:23;;;;;;;;;;;;;;;;;;5013629;28;20399;-71
2023/10/13 12:30:51;;;;;;;;;;;;;;;;;;5013836;28;19952;-72
2023/10/13 12:33:24;;;;;;;;;;;;;;;;;;5013618;28;20287;-72
2023/10/13 12:36:03;;;;;;;;;;;;;;;;;;5014049;28;20024;-72
2023/10/13 12:38:50;;;;;;;;;;;;;;;;;;5013933;28;19976;-72
2023/10/13 12:49:49;;;;;;;;;;;;;;;;;;5014072;28;20432;-72
2023/10/13 12:52:18;;;;;;;;;;;;;;;;;;5013614;28;19969;-71
2023/10/13 12:54:47;;;;;;;;;;;;;;;;;;5014285;28;19935;-71
2023/10/13 12:57:14;;;;;;;;;;;;;;;;;;5014181;28;19948;-71
2023/10/13 12:59:42;;;;;;;;;;;;;;;;;;5014293;28;19930;-71
2023/10/13 13:02:14;;;;;;;;;;;;;;;;;;5014733;28;20268;-72
2023/10/13 13:04:44;;;;;;;;;;;;;;;;;;5014648;28;19952;-72
2023/10/13 13:07:13;;;;;;;;;;;;;;;;;;5013730;28;19937;-73
2023/10/13 13:09:40;;;;;;;;;;;;;;;;;;5013978;28;19926;-72
2023/10/13 13:12:07;;;;;;;;;;;;;;;;;;5014586;28;20406;-72
2023/10/13 13:14:34;;;;;;;;;;;;;;;;;;5017416;28;19979;-70
2023/10/13 13:17:05;;;;;;;;;;;;;;;;;;5017095;28;20365;-72
2023/10/13 13:19:34;;;;;;;;;;;;;;;;;;5017379;28;19930;-72
2023/10/13 13:22:02;;;;;;;;;;;;;;;;;;5017265;28;19980;-71
2023/10/13 13:24:29;;;;;;;;;;;;;;;;;;5016921;28;20375;-71
2023/10/13 13:26:56;;;;;;;;;;;;;;;;;;5017521;28;19926;-72
2023/10/13 13:29:25;;;;;;;;;;;;;;;;;;5017243;28;19948;-72
2023/10/13 13:31:52;;;;;;;;;;;;;;;;;;5016821;28;20425;-73
2023/10/13 13:34:21;;;;;;;;;;;;;;;;;;5017138;28;19925;-72
2023/10/13 13:36:52;;;;;;;;;;;;;;;;;;5017011;28;19925;-71
2023/10/13 13:39:29;;;;;;;;;;;;;;;;;;5017096;28;20394;-71
2023/10/13 13:41:56;;;;;;;;;;;;;;;;;;5016897;28;19977;-71
2023/10/13 13:44:28;;;;;;;;;;;;;;;;;;5016910;28;19931;-71
2023/10/13 13:46:56;;;;;;;;;;;;;;;;;;5016947;28;19941;-71
2023/10/13 13:49:29;;;;;;;;;;;;;;;;;;5017020;28;19925;-71
2023/10/13 13:51:56;;;;;;;;;;;;;;;;;;5016737;28;19925;-71
2023/10/13 13:54:27;;;;;;;;;;;;;;;;;;5016589;28;20367;-71
2023/10/13 13:56:54;;;;;;;;;;;;;;;;;;5017084;28;19925;-72
2023/10/13 13:59:21;;;;;;;;;;;;;;;;;;5016969;28;20001;-71
2023/10/13 14:01:48;;;;;;;;;;;;;;;;;;5017254;28;19925;-72
2023/10/13 14:04:17;;;;;;;;;;;;;;;;;;5018080;28;19925;-73
2023/10/13 14:06:44;;;;;;;;;;;;;;;;;;5017067;28;20335;-72
2023/10/13 14:09:15;;;;;;;;;;;;;;;;;;5016395;28;19933;-72
2023/10/13 14:14:33;;;;;;;;;;;;;;;;;;5015981;28;19921;-72
2023/10/13 14:17:09;;;;;;;;;;;;;;;;;;5015897;28;19992;-71
2023/10/13 14:19:40;;;;;;;;;;;;;;;;;;5016178;28;20291;-71
2023/10/13 14:22:07;;;;;;;;;;;;;;;;;;5016145;28;20469;-71
2023/10/13 14:24:34;;;;;;;;;;;;;;;;;;5015545;28;19988;-72
2023/10/13 14:27:07;;;;;;;;;;;;;;;;;;5016438;28;20354;-71
2023/10/13 14:29:39;;;;;;;;;;;;;;;;;;5016577;28;19932;-70
2023/10/13 14:32:07;;;;;;;;;;;;;;;;;;5017650;28;19926;-69
2023/10/13 14:34:35;;;;;;;;;;;;;;;;;;5017670;28;20020;-68
2023/10/13 14:37:04;;;;;;;;;;;;;;;;;;5016172;28;20020;-68
2023/10/13 14:39:34;;;;;;;;;;;;;;;;;;5016589;28;19926;-68
2023/10/13 14:42:02;;;;;;;;;;;;;;;;;;5016462;28;19925;-68
2023/10/13 14:44:29;;;;;;;;;;;;;;;;;;5016324;28;20417;-69
2023/10/13 14:46:56;;;;;;;;;;;;;;;;;;5016161;28;19931;-68
2023/10/13 14:49:23;;;;;;;;;;;;;;;;;;5015596;28;19939;-68
2023/10/13 14:51:50;;;;;;;;;;;;;;;;;;5015602;28;19948;-69
2023/10/13 14:54:25;;;;;;;;;;;;;;;;;;5015650;28;19933;-69
2023/10/13 14:56:54;;;;;;;;;;;;;;;;;;5015583;28;19929;-68
2023/10/13 14:59:22;;;;;;;;;;;;;;;;;;5015818;28;20023;-68
2023/10/13 15:01:50;;;;;;;;;;;;;;;;;;5015547;28;19925;-68
2023/10/13 15:04:17;;;;;;;;;;;;;;;;;;5015382;28;19929;-69
2023/10/13 15:06:44;;;;;;;;;;;;;;;;;;5016135;28;19926;-69
2023/10/13 15:09:11;;;;;;;;;;;;;;;;;;5015167;28;19938;-69
2023/10/13 15:11:38;;;;;;;;;;;;;;;;;;5015023;28;19925;-69
2023/10/13 15:14:06;;;;;;;;;;;;;;;;;;5015492;28;19932;-69
2023/10/13 15:16:34;;;;;;;;;;;;;;;;;;5015201;28;19925;-69
2023/10/13 15:19:03;;;;;;;;;;;;;;;;;;5015375;28;20330;-69
2023/10/13 15:21:34;;;;;;;;;;;;;;;;;;5015050;28;19930;-69
2023/10/13 15:24:03;;;;;;;;;;;;;;;;;;5014816;28;20394;-69
2023/10/13 15:26:29;;;;;;;;;;;;;;;;;;5015150;28;20024;-68
2023/10/13 15:28:56;;;;;;;;;;;;;;;;;;5015011;28;19971;-67
2023/10/13 15:31:25;;;;;;;;;;;;;;;;;;5015059;28;19936;-68
2023/10/13 15:33:54;;;;;;;;;;;;;;;;;;5015188;28;19925;-68
2023/10/13 15:36:21;;;;;;;;;;;;;;;;;;5014684;28;19925;-67
2023/10/13 15:38:48;;;;;;;;;;;;;;;;;;5015736;28;20016;-67
2023/10/13 15:41:15;;;;;;;;;;;;;;;;;;5015007;28;19926;-68
2023/10/13 15:43:49;;;;;;;;;;;;;;;;;;5014862;28;19932;-67
2023/10/13 15:46:18;;;;;;;;;;;;;;;;;;5015051;28;19925;-67
2023/10/13 15:48:45;;;;;;;;;;;;;;;;;;5015018;28;19929;-67
2023/10/13 15:51:12;;;;;;;;;;;;;;;;;;5014983;28;19926;-67
2023/10/13 15:53:39;;;;;;;;;;;;;;;;;;5014704;28;19972;-67
2023/10/13 15:56:11;;;;;;;;;;;;;;;;;;5015270;28;19979;-67
2023/10/13 15:58:38;;;;;;;;;;;;;;;;;;5015952;28;19948;-67
2023/10/13 16:01:07;;;;;;;;;;;;;;;;;;5015497;28;19925;-68
2023/10/13 16:03:34;;;;;;;;;;;;;;;;;;5015118;28;19933;-68
2023/10/13 16:06:01;;;;;;;;;;;;;;;;;;5014887;28;19925;-67
2023/10/13 16:08:32;;;;;;;;;;;;;;;;;;5014502;28;20342;-67
2023/10/13 16:10:59;;;;;;;;;;;;;;;;;;5014652;28;19929;-67
2023/10/13 16:13:26;;;;;;;;;;;;;;;;;;5014662;28;19926;-67
2023/10/13 16:15:53;;;;;;;;;;;;;;;;;;5014467;28;19929;-67
2023/10/13 16:18:21;;;;;;;;;;;;;;;;;;5014458;28;19980;-67
2023/10/13 16:20:50;;;;;;;;;;;;;;;;;;5014137;28;19926;-67
2023/10/13 16:23:17;;;;;;;;;;;;;;;;;;5014278;28;20377;-67
2023/10/13 16:25:44;;;;;;;;;;;;;;;;;;5014123;28;19926;-67
2023/10/13 16:28:12;;;;;;;;;;;;;;;;;;5014118;28;19926;-67
2023/10/13 16:30:39;;;;;;;;;;;;;;;;;;5013912;28;20016;-67
2023/10/13 16:33:06;;;;;;;;;;;;;;;;;;5013986;28;19968;-67
2023/10/13 16:35:33;;;;;;;;;;;;;;;;;;5013987;28;20007;-67
2023/10/13 16:38:06;;;;;;;;;;;;;;;;;;5014197;28;19969;-68
2023/10/13 16:40:33;;;;;;;;;;;;;;;;;;5014023;28;19972;-68
2023/10/13 16:43:00;;;;;;;;;;;;;;;;;;5013939;28;19925;-67
2023/10/13 16:45:31;;;;;;;;;;;;;;;;;;5013899;28;19925;-67
2023/10/13 16:47:58;;;;;;;;;;;;;;;;;;5016201;28;20413;-67
2023/10/13 16:50:28;;;;;;;;;;;;;;;;;;5017987;28;20012;-67
2023/10/13 16:52:56;;;;;;;;;;;;;;;;;;5017599;28;20341;-67
2023/10/13 16:55:24;;;;;;;;;;;;;;;;;;5017587;28;19930;-67
2023/10/13 16:57:51;;;;;;;;;;;;;;;;;;5017910;28;19925;-68
2023/10/13 17:00:18;;;;;;;;;;;;;;;;;;5017748;28;19926;-67
2023/10/13 17:02:45;;;;;;;;;;;;;;;;;;5017761;28;19929;-67
2023/10/13 17:05:17;;;;;;;;;;;;;;;;;;5017576;28;19964;-68
2023/10/13 17:07:46;;;;;;;;;;;;;;;;;;5018346;28;19929;-68
2023/10/13 17:10:14;;;;;;;;;;;;;;;;;;5018420;28;19929;-68
2023/10/13 17:12:40;;;;;;;;;;;;;;;;;;5018252;28;19980;-67
2023/10/13 17:15:13;;;;;;;;;;;;;;;;;;5017907;28;20379;-68
2023/10/13 17:17:40;;;;;;;;;;;;;;;;;;5018186;28;19925;-68
2023/10/13 17:20:09;;;;;;;;;;;;;;;;;;5018218;28;19925;-69
2023/10/13 17:22:36;;;;;;;;;;;;;;;;;;5017969;28;19925;-68
2023/10/13 17:25:03;;;;;;;;;;;;;;;;;;5017802;28;19968;-67
2023/10/13 17:27:32;;;;;;;;;;;;;;;;;;5017832;28;20020;-68
2023/10/13 17:29:59;;;;;;;;;;;;;;;;;;5017903;28;19941;-68
2023/10/13 17:32:26;;;;;;;;;;;;;;;;;;5017716;28;20498;-68
2023/10/13 17:34:53;;;;;;;;;;;;;;;;;;5017488;28;19972;-67
2023/10/13 17:37:20;;;;;;;;;;;;;;;;;;5017731;28;19931;-69
2023/10/13 17:39:47;;;;;;;;;;;;;;;;;;5017791;28;19948;-69
2023/10/13 17:42:13;;;;;;;;;;;;;;;;;;5017759;28;19930;-67
2023/10/13 17:44:40;;;;;;;;;;;;;;;;;;5017606;28;19925;-68
2023/10/13 17:47:10;;;;;;;;;;;;;;;;;;5017476;28;20402;-67
2023/10/13 17:49:39;;;;;;;;;;;;;;;;;;5018357;28;19931;-68
2023/10/13 17:52:07;;;;;;;;;;;;;;;;;;5017261;28;19925;-69
2023/10/13 17:54:34;;;;;;;;;;;;;;;;;;5017477;28;19944;-69
2023/10/13 17:57:06;;;;;;;;;;;;;;;;;;5017549;28;19933;-68
2023/10/13 17:59:33;;;;;;;;;;;;;;;;;;5017882;28;19929;-69
2023/10/13 18:02:00;;;;;;;;;;;;;;;;;;5017849;28;19926;-68
2023/10/13 18:04:27;;;;;;;;;;;;;;;;;;5017269;28;19926;-68
2023/10/13 18:06:56;;;;;;;;;;;;;;;;;;5016830;28;19980;-69
2023/10/13 18:09:23;;;;;;;;;;;;;;;;;;5017127;28;19926;-69
2023/10/13 18:11:50;;;;;;;;;;;;;;;;;;5016494;28;20387;-68
2023/10/13 18:14:19;;;;;;;;;;;;;;;;;;5016906;28;19926;-68
2023/10/13 18:16:49;;;;;;;;;;;;;;;;;;5017474;28;19976;-69
2023/10/13 18:19:20;;;;;;;;;;;;;;;;;;5017177;28;19965;-68
2023/10/13 18:21:47;;;;;;;;;;;;;;;;;;5016908;28;20020;-69
2023/10/13 18:24:14;;;;;;;;;;;;;;;;;;5017006;28;19929;-69
2023/10/13 18:26:41;;;;;;;;;;;;;;;;;;5016603;28;20390;-69
2023/10/13 18:29:09;;;;;;;;;;;;;;;;;;5017169;28;19929;-67
2023/10/13 18:31:36;;;;;;;;;;;;;;;;;;5016636;28;19925;-68
2023/10/13 18:34:03;;;;;;;;;;;;;;;;;;5016839;28;19926;-69
2023/10/13 18:36:30;;;;;;;;;;;;;;;;;;5016765;28;19933;-69
2023/10/13 18:38:57;;;;;;;;;;;;;;;;;;5016700;28;20016;-70
2023/10/13 18:41:24;;;;;;;;;;;;;;;;;;5016330;28;19929;-68
2023/10/13 18:43:51;;;;;;;;;;;;;;;;;;5016757;28;19925;-69
2023/10/13 18:46:21;;;;;;;;;;;;;;;;;;5016741;28;19975;-70
2023/10/13 18:48:48;;;;;;;;;;;;;;;;;;5016569;28;20379;-69
2023/10/13 18:51:15;;;;;;;;;;;;;;;;;;5016752;28;19932;-69
2023/10/13 18:53:42;;;;;;;;;;;;;;;;;;5016566;28;19925;-69
2023/10/13 18:56:10;;;;;;;;;;;;;;;;;;5016934;28;19926;-70
2023/10/13 18:58:37;;;;;;;;;;;;;;;;;;5016675;28;19980;-68
2023/10/13 19:01:04;;;;;;;;;;;;;;;;;;5016392;28;20310;-69
2023/10/13 19:03:30;;;;;;;;;;;;;;;;;;5016650;28;19932;-69
2023/10/13 19:05:58;;;;;;;;;;;;;;;;;;5017123;28;19925;-69
2023/10/13 19:08:27;;;;;;;;;;;;;;;;;;5017365;28;19972;-69
2023/10/13 19:10:55;;;;;;;;;;;;;;;;;;5015832;28;20279;-68
2023/10/13 19:13:22;;;;;;;;;;;;;;;;;;5016976;28;19932;-68
2023/10/13 19:15:49;;;;;;;;;;;;;;;;;;5016615;28;20371;-68
2023/10/13 19:18:16;;;;;;;;;;;;;;;;;;5016083;28;19926;-68
2023/10/13 19:20:43;;;;;;;;;;;;;;;;;;5015594;28;19980;-68
2023/10/13 19:23:10;;;;;;;;;;;;;;;;;;5015854;28;19933;-68
2023/10/13 19:25:37;;;;;;;;;;;;;;;;;;5015605;28;19925;-68
2023/10/13 19:28:04;;;;;;;;;;;;;;;;;;5015288;28;20391;-68
2023/10/13 19:30:32;;;;;;;;;;;;;;;;;;5015303;28;19926;-68
2023/10/13 19:32:59;;;;;;;;;;;;;;;;;;5039691;23;19932;-72
2023/10/13 19:35:27;;;;;;;;;;;;;;;;;;5015571;28;19926;-72
2023/10/13 19:37:54;;;;;;;;;;;;;;;;;;5015288;28;19925;-70
2023/10/13 19:40:21;;;;;;;;;;;;;;;;;;5015434;28;19927;-70
2023/10/13 19:42:51;;;;;;;;;;;;;;;;;;5015607;28;19925;-74
2023/10/13 19:45:18;;;;;;;;;;;;;;;;;;5016839;28;19925;-75
2023/10/13 19:47:44;;;;;;;;;;;;;;;;;;5016073;28;19926;-73
2023/10/13 19:50:13;;;;;;;;;;;;;;;;;;5015791;28;19947;-74
2023/10/13 19:52:41;;;;;;;;;;;;;;;;;;5015343;28;19926;-74
2023/10/13 19:55:08;;;;;;;;;;;;;;;;;;5016070;28;20469;-73
2023/10/13 19:57:35;;;;;;;;;;;;;;;;;;5015741;28;19926;-74
2023/10/13 20:00:08;;;;;;;;;;;;;;;;;;5016034;28;19948;-74
2023/10/13 20:02:38;;;;;;;;;;;;;;;;;;5015858;28;19925;-74
2023/10/13 20:05:05;;;;;;;;;;;;;;;;;;5015149;28;19926;-74
2023/10/13 20:07:32;;;;;;;;;;;;;;;;;;5015539;28;19925;-74
2023/10/13 20:10:02;;;;;;;;;;;;;;;;;;5015191;28;19925;-74
2023/10/13 20:12:29;;;;;;;;;;;;;;;;;;5015588;28;20302;-74
2023/10/13 20:14:56;;;;;;;;;;;;;;;;;;5015787;28;19925;-75
2023/10/13 20:17:23;;;;;;;;;;;;;;;;;;5015371;28;20314;-74
2023/10/13 20:19:50;;;;;;;;;;;;;;;;;;5015517;28;20349;-75
2023/10/13 20:22:17;;;;;;;;;;;;;;;;;;5015223;28;19925;-74
2023/10/13 20:24:44;;;;;;;;;;;;;;;;;;5015743;28;20387;-75
2023/10/13 20:27:11;;;;;;;;;;;;;;;;;;5016042;28;19932;-74
2023/10/13 20:29:39;;;;;;;;;;;;;;;;;;5015077;28;20414;-73
2023/10/13 20:32:10;;;;;;;;;;;;;;;;;;5014840;28;19976;-73
2023/10/13 20:34:38;;;;;;;;;;;;;;;;;;5015095;28;19993;-74
2023/10/13 20:37:05;;;;;;;;;;;;;;;;;;5015162;28;19930;-74
2023/10/13 20:39:32;;;;;;;;;;;;;;;;;;5015426;28;19925;-73
2023/10/13 20:42:04;;;;;;;;;;;;;;;;;;5015776;28;19933;-73
2023/10/13 20:44:31;;;;;;;;;;;;;;;;;;5015838;28;19972;-73
2023/10/13 20:46:58;;;;;;;;;;;;;;;;;;5015907;28;19925;-75
2023/10/13 20:49:25;;;;;;;;;;;;;;;;;;5015932;28;19926;-73
2023/10/13 20:51:52;;;;;;;;;;;;;;;;;;5015733;28;20290;-74
2023/10/13 20:54:18;;;;;;;;;;;;;;;;;;5016318;28;19933;-73
2023/10/13 20:56:45;;;;;;;;;;;;;;;;;;5016204;28;20299;-73
2023/10/13 20:59:14;;;;;;;;;;;;;;;;;;5017009;28;19933;-74
2023/10/13 21:01:42;;;;;;;;;;;;;;;;;;5016552;28;20363;-74
2023/10/13 21:04:10;;;;;;;;;;;;;;;;;;5016270;28;20016;-73
2023/10/13 21:06:40;;;;;;;;;;;;;;;;;;5016075;28;19926;-74
2023/10/13 21:09:12;;;;;;;;;;;;;;;;;;5015503;28;19979;-73
2023/10/13 21:11:40;;;;;;;;;;;;;;;;;;5015839;28;19929;-73
2023/10/13 21:14:07;;;;;;;;;;;;;;;;;;5015803;28;19925;-74
2023/10/13 21:16:34;;;;;;;;;;;;;;;;;;5015797;28;19930;-78
2023/10/13 21:19:01;;;;;;;;;;;;;;;;;;5014100;28;19932;-75
2023/10/13 21:21:30;;;;;;;;;;;;;;;;;;5014194;28;20298;-75
2023/10/13 21:23:59;;;;;;;;;;;;;;;;;;5014081;28;20378;-75
2023/10/13 21:26:28;;;;;;;;;;;;;;;;;;5013931;28;19926;-75
2023/10/13 21:28:56;;;;;;;;;;;;;;;;;;5013754;28;19932;-74
2023/10/13 21:31:23;;;;;;;;;;;;;;;;;;5013732;28;20335;-74
2023/10/13 21:33:53;;;;;;;;;;;;;;;;;;5015411;28;19926;-74
2023/10/13 21:36:20;;;;;;;;;;;;;;;;;;5017277;28;19931;-75
2023/10/13 21:38:47;;;;;;;;;;;;;;;;;;5018003;28;19926;-73
2023/10/13 21:41:14;;;;;;;;;;;;;;;;;;5016997;28;19929;-73
2023/10/13 21:43:41;;;;;;;;;;;;;;;;;;5016853;28;19925;-73
2023/10/13 21:46:08;;;;;;;;;;;;;;;;;;5016874;28;19956;-74
2023/10/13 21:48:37;;;;;;;;;;;;;;;;;;5016880;28;20318;-74
2023/10/13 21:51:04;;;;;;;;;;;;;;;;;;5017016;28;19969;-74
2023/10/13 21:53:31;;;;;;;;;;;;;;;;;;5016347;28;19925;-73
2023/10/13 21:55:59;;;;;;;;;;;;;;;;;;5016965;28;19925;-73
2023/10/13 21:58:26;;;;;;;;;;;;;;;;;;5016390;28;20396;-73
2023/10/13 22:00:57;;;;;;;;;;;;;;;;;;5016573;28;19926;-73
2023/10/13 22:03:26;;;;;;;;;;;;;;;;;;5016601;28;19929;-73
2023/10/13 22:05:53;;;;;;;;;;;;;;;;;;5016187;28;20287;-74
2023/10/13 22:08:20;;;;;;;;;;;;;;;;;;5016065;28;20020;-74
2023/10/13 22:10:47;;;;;;;;;;;;;;;;;;5016490;28;19925;-74
2023/10/13 22:13:14;;;;;;;;;;;;;;;;;;5016336;28;19929;-74
2023/10/13 22:15:41;;;;;;;;;;;;;;;;;;5016213;28;19930;-74
2023/10/13 22:18:08;;;;;;;;;;;;;;;;;;5017359;28;19933;-74
2023/10/13 22:20:35;;;;;;;;;;;;;;;;;;5016819;28;20298;-74
2023/10/13 22:23:02;;;;;;;;;;;;;;;;;;5017065;28;19932;-74
2023/10/13 22:25:30;;;;;;;;;;;;;;;;;;5016528;28;19925;-74
2023/10/13 22:27:57;;;;;;;;;;;;;;;;;;5017022;28;19926;-74
2023/10/13 22:30:24;;;;;;;;;;;;;;;;;;5016837;28;19930;-74
2023/10/13 22:32:51;;;;;;;;;;;;;;;;;;5016197;28;19933;-74
2023/10/13 22:35:19;;;;;;;;;;;;;;;;;;5016206;28;19933;-74
2023/10/13 22:37:46;;;;;;;;;;;;;;;;;;5016080;28;19930;-74
2023/10/13 22:40:12;;;;;;;;;;;;;;;;;;5015707;28;20367;-74
2023/10/13 22:42:39;;;;;;;;;;;;;;;;;;5015922;28;19932;-74
2023/10/13 22:45:09;;;;;;;;;;;;;;;;;;5015998;28;19926;-74